sensor_id;sensor_type;location;lat;lon;timestamp;temperature;humidity
19342;DHT22;9807;48.258;12.690;2022-08-25T00:01:53;22.00;99.90
19342;DHT22;9807;48.258;12.690;2022-08-25T00:04:23;21.90;99.90
19342;DHT22;9807;48.258;12.690;2022-08-25T00:06:50;21.90;99.90
19342;DHT22;9807;48.258;12.690;2022-08-25T00:09:20;21.90;99.90
19342;DHT22;9807;48.258;12.690;2022-08-25T00:11:46;21.90;99.90
19342;DHT22;9807;48.258;12.690;2022-08-25T00:14:21;21.90;99.90
19342;DHT22;9807;48.258;12.690;2022-08-25T00:16:47;21.90;99.90
19342;DHT22;9807;48.258;12.690;2022-08-25T00:19:17;21.90;99.90
19342;DHT22;9807;48.258;12.690;2022-08-25T00:21:46;21.80;99.90
19342;DHT22;9807;48.258;12.690;2022-08-25T00:24:14;21.80;99.90
19342;DHT22;9807;48.258;12.690;2022-08-25T00:26:42;21.80;99.90
19342;DHT22;9807;48.258;12.690;2022-08-25T00:29:09;21.80;99.90
19342;DHT22;9807;48.258;12.690;2022-08-25T00:31:36;21.80;99.90
19342;DHT22;9807;48.258;12.690;2022-08-25T00:34:04;21.70;99.90
19342;DHT22;9807;48.258;12.690;2022-08-25T00:36:32;21.70;99.90
19342;DHT22;9807;48.258;12.690;2022-08-25T00:38:58;21.70;99.90
19342;DHT22;9807;48.258;12.690;2022-08-25T00:41:25;21.70;99.90
19342;DHT22;9807;48.258;12.690;2022-08-25T00:43:56;21.70;99.90
19342;DHT22;9807;48.258;12.690;2022-08-25T00:46:43;21.60;99.90
19342;DHT22;9807;48.258;12.690;2022-08-25T00:49:34;21.60;99.90
19342;DHT22;9807;48.258;12.690;2022-08-25T00:52:09;21.60;99.90
19342;DHT22;9807;48.258;12.690;2022-08-25T00:54:41;21.60;99.90
19342;DHT22;9807;48.258;12.690;2022-08-25T00:57:11;21.60;99.90
19342;DHT22;9807;48.258;12.690;2022-08-25T00:59:38;21.60;99.90
19342;DHT22;9807;48.258;12.690;2022-08-25T01:02:06;21.50;99.90
19342;DHT22;9807;48.258;12.690;2022-08-25T01:04:32;21.50;99.90
19342;DHT22;9807;48.258;12.690;2022-08-25T01:06:58;21.50;99.90
19342;DHT22;9807;48.258;12.690;2022-08-25T01:09:25;21.50;99.90
19342;DHT22;9807;48.258;12.690;2022-08-25T01:11:53;21.50;99.90
19342;DHT22;9807;48.258;12.690;2022-08-25T01:14:23;21.50;99.90
19342;DHT22;9807;48.258;12.690;2022-08-25T01:16:49;21.40;99.90
19342;DHT22;9807;48.258;12.690;2022-08-25T01:19:16;21.40;99.90
19342;DHT22;9807;48.258;12.690;2022-08-25T01:21:45;21.40;99.90
19342;DHT22;9807;48.258;12.690;2022-08-25T01:24:19;21.40;99.90
19342;DHT22;9807;48.258;12.690;2022-08-25T01:26:48;21.40;99.90
19342;DHT22;9807;48.258;12.690;2022-08-25T01:29:14;21.20;99.90
19342;DHT22;9807;48.258;12.690;2022-08-25T01:32:06;21.10;99.90
19342;DHT22;9807;48.258;12.690;2022-08-25T01:34:34;21.10;99.90
19342;DHT22;9807;48.258;12.690;2022-08-25T01:37:01;21.00;99.90
19342;DHT22;9807;48.258;12.690;2022-08-25T01:39:28;21.10;99.90
19342;DHT22;9807;48.258;12.690;2022-08-25T01:42:23;21.10;99.90
19342;DHT22;9807;48.258;12.690;2022-08-25T01:44:52;21.10;99.90
19342;DHT22;9807;48.258;12.690;2022-08-25T01:47:19;21.10;99.90
19342;DHT22;9807;48.258;12.690;2022-08-25T01:49:44;21.10;99.90
19342;DHT22;9807;48.258;12.690;2022-08-25T01:52:24;21.10;99.90
19342;DHT22;9807;48.258;12.690;2022-08-25T01:54:49;21.10;99.90
19342;DHT22;9807;48.258;12.690;2022-08-25T01:57:16;21.10;99.90
19342;DHT22;9807;48.258;12.690;2022-08-25T01:59:41;21.10;99.90
19342;DHT22;9807;48.258;12.690;2022-08-25T02:02:08;21.10;99.90
19342;DHT22;9807;48.258;12.690;2022-08-25T02:04:33;21.10;99.90
19342;DHT22;9807;48.258;12.690;2022-08-25T02:07:01;21.10;99.90
19342;DHT22;9807;48.258;12.690;2022-08-25T02:09:27;21.10;99.90
19342;DHT22;9807;48.258;12.690;2022-08-25T02:11:54;21.10;99.90
19342;DHT22;9807;48.258;12.690;2022-08-25T02:14:21;21.00;99.90
19342;DHT22;9807;48.258;12.690;2022-08-25T02:16:50;21.00;99.90
19342;DHT22;9807;48.258;12.690;2022-08-25T02:19:20;21.10;99.90
19342;DHT22;9807;48.258;12.690;2022-08-25T02:21:46;21.00;99.90
19342;DHT22;9807;48.258;12.690;2022-08-25T02:24:13;21.00;99.90
19342;DHT22;9807;48.258;12.690;2022-08-25T02:26:39;21.00;99.90
19342;DHT22;9807;48.258;12.690;2022-08-25T02:29:06;21.00;99.90
19342;DHT22;9807;48.258;12.690;2022-08-25T02:31:32;21.00;99.90
19342;DHT22;9807;48.258;12.690;2022-08-25T02:33:59;21.00;99.90
19342;DHT22;9807;48.258;12.690;2022-08-25T02:36:26;20.90;99.90
19342;DHT22;9807;48.258;12.690;2022-08-25T02:38:52;20.90;99.90
19342;DHT22;9807;48.258;12.690;2022-08-25T02:41:20;20.90;99.90
19342;DHT22;9807;48.258;12.690;2022-08-25T02:43:47;20.90;99.90
19342;DHT22;9807;48.258;12.690;2022-08-25T02:46:15;20.90;99.90
19342;DHT22;9807;48.258;12.690;2022-08-25T02:48:41;20.90;99.90
19342;DHT22;9807;48.258;12.690;2022-08-25T02:51:08;20.90;99.90
19342;DHT22;9807;48.258;12.690;2022-08-25T02:53:36;20.80;99.90
19342;DHT22;9807;48.258;12.690;2022-08-25T02:56:08;20.80;99.90
19342;DHT22;9807;48.258;12.690;2022-08-25T02:58:34;20.80;99.90
19342;DHT22;9807;48.258;12.690;2022-08-25T03:01:00;20.80;99.90
19342;DHT22;9807;48.258;12.690;2022-08-25T03:03:26;20.80;99.90
19342;DHT22;9807;48.258;12.690;2022-08-25T03:05:52;20.80;99.90
19342;DHT22;9807;48.258;12.690;2022-08-25T03:08:20;20.80;99.90
19342;DHT22;9807;48.258;12.690;2022-08-25T03:10:46;20.80;99.90
19342;DHT22;9807;48.258;12.690;2022-08-25T03:13:12;20.80;99.90
19342;DHT22;9807;48.258;12.690;2022-08-25T03:15:38;20.80;99.90
19342;DHT22;9807;48.258;12.690;2022-08-25T03:18:04;20.70;99.90
19342;DHT22;9807;48.258;12.690;2022-08-25T03:20:30;20.70;99.90
19342;DHT22;9807;48.258;12.690;2022-08-25T03:22:56;20.70;99.90
19342;DHT22;9807;48.258;12.690;2022-08-25T03:25:22;20.70;99.90
19342;DHT22;9807;48.258;12.690;2022-08-25T03:28:07;20.70;99.90
19342;DHT22;9807;48.258;12.690;2022-08-25T03:30:33;20.70;99.90
19342;DHT22;9807;48.258;12.690;2022-08-25T03:32:59;20.60;99.90
19342;DHT22;9807;48.258;12.690;2022-08-25T03:35:25;20.70;99.90
19342;DHT22;9807;48.258;12.690;2022-08-25T03:37:55;20.70;99.90
19342;DHT22;9807;48.258;12.690;2022-08-25T03:40:21;20.70;99.90
19342;DHT22;9807;48.258;12.690;2022-08-25T03:42:47;20.70;99.90
19342;DHT22;9807;48.258;12.690;2022-08-25T03:45:14;20.60;99.90
19342;DHT22;9807;48.258;12.690;2022-08-25T03:47:41;20.60;99.90
19342;DHT22;9807;48.258;12.690;2022-08-25T03:50:08;20.60;99.90
19342;DHT22;9807;48.258;12.690;2022-08-25T03:52:35;20.60;99.90
19342;DHT22;9807;48.258;12.690;2022-08-25T03:55:03;20.60;99.90
19342;DHT22;9807;48.258;12.690;2022-08-25T03:57:29;20.60;99.90
19342;DHT22;9807;48.258;12.690;2022-08-25T03:59:55;20.60;99.90
19342;DHT22;9807;48.258;12.690;2022-08-25T04:02:21;20.60;99.90
19342;DHT22;9807;48.258;12.690;2022-08-25T04:04:46;20.60;99.90
19342;DHT22;9807;48.258;12.690;2022-08-25T04:07:12;20.50;99.90
19342;DHT22;9807;48.258;12.690;2022-08-25T04:09:38;20.50;99.90
19342;DHT22;9807;48.258;12.690;2022-08-25T04:12:04;20.50;99.90
19342;DHT22;9807;48.258;12.690;2022-08-25T04:14:30;20.50;99.90
19342;DHT22;9807;48.258;12.690;2022-08-25T04:16:56;20.30;99.90
19342;DHT22;9807;48.258;12.690;2022-08-25T04:19:22;20.20;99.90
19342;DHT22;9807;48.258;12.690;2022-08-25T04:21:48;20.10;99.90
19342;DHT22;9807;48.258;12.690;2022-08-25T04:24:14;20.00;99.90
19342;DHT22;9807;48.258;12.690;2022-08-25T04:26:45;19.60;99.90
19342;DHT22;9807;48.258;12.690;2022-08-25T04:29:13;19.30;99.90
19342;DHT22;9807;48.258;12.690;2022-08-25T04:31:46;19.20;99.90
19342;DHT22;9807;48.258;12.690;2022-08-25T04:34:18;18.90;99.90
19342;DHT22;9807;48.258;12.690;2022-08-25T04:36:44;18.60;99.90
19342;DHT22;9807;48.258;12.690;2022-08-25T04:39:10;18.30;99.90
19342;DHT22;9807;48.258;12.690;2022-08-25T04:41:37;18.10;99.90
19342;DHT22;9807;48.258;12.690;2022-08-25T04:44:03;18.00;99.90
19342;DHT22;9807;48.258;12.690;2022-08-25T04:46:31;18.20;99.90
19342;DHT22;9807;48.258;12.690;2022-08-25T04:48:59;18.60;99.90
19342;DHT22;9807;48.258;12.690;2022-08-25T04:51:29;18.90;99.90
19342;DHT22;9807;48.258;12.690;2022-08-25T04:53:58;19.20;99.90
19342;DHT22;9807;48.258;12.690;2022-08-25T04:56:27;19.40;99.90
19342;DHT22;9807;48.258;12.690;2022-08-25T04:59:01;19.60;99.90
19342;DHT22;9807;48.258;12.690;2022-08-25T05:01:28;19.80;99.90
19342;DHT22;9807;48.258;12.690;2022-08-25T05:03:59;19.80;99.90
19342;DHT22;9807;48.258;12.690;2022-08-25T05:06:25;19.90;99.90
19342;DHT22;9807;48.258;12.690;2022-08-25T05:08:53;20.00;99.90
19342;DHT22;9807;48.258;12.690;2022-08-25T05:11:18;20.00;99.90
19342;DHT22;9807;48.258;12.690;2022-08-25T05:13:48;20.10;99.90
19342;DHT22;9807;48.258;12.690;2022-08-25T05:16:15;20.10;99.90
19342;DHT22;9807;48.258;12.690;2022-08-25T05:18:42;19.90;99.90
19342;DHT22;9807;48.258;12.690;2022-08-25T05:21:22;19.80;99.90
19342;DHT22;9807;48.258;12.690;2022-08-25T05:23:49;19.50;99.90
19342;DHT22;9807;48.258;12.690;2022-08-25T05:26:19;19.20;99.90
19342;DHT22;9807;48.258;12.690;2022-08-25T05:28:46;19.10;99.90
19342;DHT22;9807;48.258;12.690;2022-08-25T05:31:13;19.20;99.90
19342;DHT22;9807;48.258;12.690;2022-08-25T05:33:40;19.30;99.90
19342;DHT22;9807;48.258;12.690;2022-08-25T05:36:07;19.50;99.90
19342;DHT22;9807;48.258;12.690;2022-08-25T05:38:34;19.70;99.90
19342;DHT22;9807;48.258;12.690;2022-08-25T05:41:13;19.90;99.90
19342;DHT22;9807;48.258;12.690;2022-08-25T05:43:41;20.10;99.90
19342;DHT22;9807;48.258;12.690;2022-08-25T05:46:08;20.20;99.90
19342;DHT22;9807;48.258;12.690;2022-08-25T05:48:34;20.30;99.90
19342;DHT22;9807;48.258;12.690;2022-08-25T05:51:05;20.50;99.90
19342;DHT22;9807;48.258;12.690;2022-08-25T05:53:36;20.50;99.90
19342;DHT22;9807;48.258;12.690;2022-08-25T05:56:06;20.70;99.90
19342;DHT22;9807;48.258;12.690;2022-08-25T05:58:32;20.80;99.90
19342;DHT22;9807;48.258;12.690;2022-08-25T06:00:58;20.90;99.90
19342;DHT22;9807;48.258;12.690;2022-08-25T06:03:47;21.10;99.90
19342;DHT22;9807;48.258;12.690;2022-08-25T06:06:14;21.30;99.90
19342;DHT22;9807;48.258;12.690;2022-08-25T06:08:42;21.40;99.90
19342;DHT22;9807;48.258;12.690;2022-08-25T06:11:12;21.60;99.90
19342;DHT22;9807;48.258;12.690;2022-08-25T06:13:46;21.70;99.90
19342;DHT22;9807;48.258;12.690;2022-08-25T06:16:12;21.80;99.90
19342;DHT22;9807;48.258;12.690;2022-08-25T06:18:38;21.90;99.90
19342;DHT22;9807;48.258;12.690;2022-08-25T06:21:11;22.20;99.90
19342;DHT22;9807;48.258;12.690;2022-08-25T06:23:41;22.40;99.90
19342;DHT22;9807;48.258;12.690;2022-08-25T06:26:11;22.60;99.90
19342;DHT22;9807;48.258;12.690;2022-08-25T06:28:38;22.80;99.90
19342;DHT22;9807;48.258;12.690;2022-08-25T06:31:06;22.80;99.90
19342;DHT22;9807;48.258;12.690;2022-08-25T06:33:32;22.90;99.90
19342;DHT22;9807;48.258;12.690;2022-08-25T06:35:58;23.10;99.90
19342;DHT22;9807;48.258;12.690;2022-08-25T06:38:24;23.40;99.90
19342;DHT22;9807;48.258;12.690;2022-08-25T06:40:50;23.50;99.90
19342;DHT22;9807;48.258;12.690;2022-08-25T06:43:20;23.70;99.90
19342;DHT22;9807;48.258;12.690;2022-08-25T06:45:46;24.00;99.90
19342;DHT22;9807;48.258;12.690;2022-08-25T06:48:13;24.30;99.90
19342;DHT22;9807;48.258;12.690;2022-08-25T06:50:39;24.50;99.90
19342;DHT22;9807;48.258;12.690;2022-08-25T06:53:06;24.80;99.90
19342;DHT22;9807;48.258;12.690;2022-08-25T06:55:41;25.00;99.90
19342;DHT22;9807;48.258;12.690;2022-08-25T06:58:07;25.10;99.90
19342;DHT22;9807;48.258;12.690;2022-08-25T07:00:34;25.30;99.90
19342;DHT22;9807;48.258;12.690;2022-08-25T07:03:00;25.50;99.90
19342;DHT22;9807;48.258;12.690;2022-08-25T07:05:28;25.70;99.90
19342;DHT22;9807;48.258;12.690;2022-08-25T07:07:54;25.80;99.90
19342;DHT22;9807;48.258;12.690;2022-08-25T07:10:20;25.90;99.90
19342;DHT22;9807;48.258;12.690;2022-08-25T07:12:52;26.20;99.90
19342;DHT22;9807;48.258;12.690;2022-08-25T07:15:18;26.30;99.90
19342;DHT22;9807;48.258;12.690;2022-08-25T07:17:53;26.30;99.90
19342;DHT22;9807;48.258;12.690;2022-08-25T07:20:18;26.50;99.90
19342;DHT22;9807;48.258;12.690;2022-08-25T07:22:44;26.60;99.90
19342;DHT22;9807;48.258;12.690;2022-08-25T07:25:10;26.80;99.90
19342;DHT22;9807;48.258;12.690;2022-08-25T07:27:37;26.90;99.90
19342;DHT22;9807;48.258;12.690;2022-08-25T07:30:05;27.10;99.90
19342;DHT22;9807;48.258;12.690;2022-08-25T07:32:31;27.20;99.90
19342;DHT22;9807;48.258;12.690;2022-08-25T07:34:57;27.40;99.90
19342;DHT22;9807;48.258;12.690;2022-08-25T07:37:53;27.00;99.90
19342;DHT22;9807;48.258;12.690;2022-08-25T07:40:31;27.10;99.90
19342;DHT22;9807;48.258;12.690;2022-08-25T07:43:00;27.20;99.90
19342;DHT22;9807;48.258;12.690;2022-08-25T07:45:28;27.40;99.90
19342;DHT22;9807;48.258;12.690;2022-08-25T07:47:57;27.30;99.90
19342;DHT22;9807;48.258;12.690;2022-08-25T07:50:28;27.40;99.90
19342;DHT22;9807;48.258;12.690;2022-08-25T07:52:55;27.70;99.90
19342;DHT22;9807;48.258;12.690;2022-08-25T07:55:24;27.90;99.90
19342;DHT22;9807;48.258;12.690;2022-08-25T07:57:55;28.20;99.90
19342;DHT22;9807;48.258;12.690;2022-08-25T08:00:22;28.30;99.90
19342;DHT22;9807;48.258;12.690;2022-08-25T08:02:50;28.50;99.90
19342;DHT22;9807;48.258;12.690;2022-08-25T08:05:16;28.60;99.90
19342;DHT22;9807;48.258;12.690;2022-08-25T08:07:45;28.60;99.90
19342;DHT22;9807;48.258;12.690;2022-08-25T08:10:14;28.60;99.90
19342;DHT22;9807;48.258;12.690;2022-08-25T08:12:40;28.70;99.90
19342;DHT22;9807;48.258;12.690;2022-08-25T08:15:07;28.80;99.90
19342;DHT22;9807;48.258;12.690;2022-08-25T08:17:33;29.10;99.90
19342;DHT22;9807;48.258;12.690;2022-08-25T08:19:59;29.10;99.90
19342;DHT22;9807;48.258;12.690;2022-08-25T08:22:25;29.10;99.90
19342;DHT22;9807;48.258;12.690;2022-08-25T08:24:53;29.20;99.90
19342;DHT22;9807;48.258;12.690;2022-08-25T08:27:19;28.70;99.90
19342;DHT22;9807;48.258;12.690;2022-08-25T08:29:45;28.20;99.90
19342;DHT22;9807;48.258;12.690;2022-08-25T08:32:12;28.20;99.90
19342;DHT22;9807;48.258;12.690;2022-08-25T08:34:39;28.50;99.90
19342;DHT22;9807;48.258;12.690;2022-08-25T08:37:07;28.50;99.90
19342;DHT22;9807;48.258;12.690;2022-08-25T08:39:33;28.80;99.90
19342;DHT22;9807;48.258;12.690;2022-08-25T08:52:49;29.60;99.90
19342;DHT22;9807;48.258;12.690;2022-08-25T08:55:56;29.50;99.90
19342;DHT22;9807;48.258;12.690;2022-08-25T09:00:57;29.30;99.90
19342;DHT22;9807;48.258;12.690;2022-08-25T09:03:37;29.20;99.90
19342;DHT22;9807;48.258;12.690;2022-08-25T09:06:29;29.30;99.90
19342;DHT22;9807;48.258;12.690;2022-08-25T09:08:57;29.30;99.90
19342;DHT22;9807;48.258;12.690;2022-08-25T09:11:34;29.30;99.90
19342;DHT22;9807;48.258;12.690;2022-08-25T09:16:46;29.00;99.90
19342;DHT22;9807;48.258;12.690;2022-08-25T09:20:00;29.10;99.90
19342;DHT22;9807;48.258;12.690;2022-08-25T09:25:43;29.00;99.90
19342;DHT22;9807;48.258;12.690;2022-08-25T09:31:00;28.80;99.90
19342;DHT22;9807;48.258;12.690;2022-08-25T09:33:33;28.80;99.90
19342;DHT22;9807;48.258;12.690;2022-08-25T09:36:05;28.80;99.90
19342;DHT22;9807;48.258;12.690;2022-08-25T09:38:31;28.50;99.90
19342;DHT22;9807;48.258;12.690;2022-08-25T09:40:58;28.50;99.90
19342;DHT22;9807;48.258;12.690;2022-08-25T09:43:32;28.50;99.90
19342;DHT22;9807;48.258;12.690;2022-08-25T09:46:12;28.50;99.90
19342;DHT22;9807;48.258;12.690;2022-08-25T09:48:56;28.50;99.90
19342;DHT22;9807;48.258;12.690;2022-08-25T09:51:26;28.50;99.90
19342;DHT22;9807;48.258;12.690;2022-08-25T09:54:15;28.50;99.90
19342;DHT22;9807;48.258;12.690;2022-08-25T09:56:53;28.50;99.90
19342;DHT22;9807;48.258;12.690;2022-08-25T09:59:29;28.40;99.90
19342;DHT22;9807;48.258;12.690;2022-08-25T10:02:00;28.50;99.90
19342;DHT22;9807;48.258;12.690;2022-08-25T10:04:37;28.40;99.90
19342;DHT22;9807;48.258;12.690;2022-08-25T10:07:24;28.50;99.90
19342;DHT22;9807;48.258;12.690;2022-08-25T10:10:04;28.50;99.90
19342;DHT22;9807;48.258;12.690;2022-08-25T10:12:38;28.20;99.90
19342;DHT22;9807;48.258;12.690;2022-08-25T10:17:54;28.20;99.90
19342;DHT22;9807;48.258;12.690;2022-08-25T10:20:24;28.10;99.90
19342;DHT22;9807;48.258;12.690;2022-08-25T10:22:50;28.10;99.90
19342;DHT22;9807;48.258;12.690;2022-08-25T10:25:27;28.20;99.90
19342;DHT22;9807;48.258;12.690;2022-08-25T10:28:19;28.40;99.90
19342;DHT22;9807;48.258;12.690;2022-08-25T10:42:38;28.60;99.90
19342;DHT22;9807;48.258;12.690;2022-08-25T10:45:22;28.70;99.90
19342;DHT22;9807;48.258;12.690;2022-08-25T10:56:39;29.00;99.90
19342;DHT22;9807;48.258;12.690;2022-08-25T11:04:56;29.10;99.90
19342;DHT22;9807;48.258;12.690;2022-08-25T11:07:28;29.10;99.90
19342;DHT22;9807;48.258;12.690;2022-08-25T11:10:05;29.20;99.90
19342;DHT22;9807;48.258;12.690;2022-08-25T11:12:59;29.30;99.90
19342;DHT22;9807;48.258;12.690;2022-08-25T11:15:36;29.30;99.90
19342;DHT22;9807;48.258;12.690;2022-08-25T11:18:10;29.40;99.90
19342;DHT22;9807;48.258;12.690;2022-08-25T11:20:43;29.40;99.90
19342;DHT22;9807;48.258;12.690;2022-08-25T11:23:23;29.40;99.90
19342;DHT22;9807;48.258;12.690;2022-08-25T11:25:54;29.40;99.90
19342;DHT22;9807;48.258;12.690;2022-08-25T11:28:43;29.30;99.90
19342;DHT22;9807;48.258;12.690;2022-08-25T11:31:13;29.30;99.90
19342;DHT22;9807;48.258;12.690;2022-08-25T11:33:39;29.40;99.90
19342;DHT22;9807;48.258;12.690;2022-08-25T11:36:23;29.50;99.90
19342;DHT22;9807;48.258;12.690;2022-08-25T11:41:35;29.40;99.90
19342;DHT22;9807;48.258;12.690;2022-08-25T11:51:57;29.50;99.90
19342;DHT22;9807;48.258;12.690;2022-08-25T11:54:33;29.60;99.90
19342;DHT22;9807;48.258;12.690;2022-08-25T11:57:21;29.60;99.90
19342;DHT22;9807;48.258;12.690;2022-08-25T12:02:46;29.60;99.90
19342;DHT22;9807;48.258;12.690;2022-08-25T12:10:54;29.50;99.90
19342;DHT22;9807;48.258;12.690;2022-08-25T12:15:53;29.70;99.90
19342;DHT22;9807;48.258;12.690;2022-08-25T12:23:34;29.80;99.90
19342;DHT22;9807;48.258;12.690;2022-08-25T12:28:53;29.60;99.90
19342;DHT22;9807;48.258;12.690;2022-08-25T12:34:34;29.60;99.90
19342;DHT22;9807;48.258;12.690;2022-08-25T12:37:20;29.60;99.90
19342;DHT22;9807;48.258;12.690;2022-08-25T12:47:39;29.60;99.90
19342;DHT22;9807;48.258;12.690;2022-08-25T12:53:37;29.60;99.90
19342;DHT22;9807;48.258;12.690;2022-08-25T12:58:50;29.40;99.90
19342;DHT22;9807;48.258;12.690;2022-08-25T13:10:32;29.30;99.90
19342;DHT22;9807;48.258;12.690;2022-08-25T13:15:56;29.50;99.90
19342;DHT22;9807;48.258;12.690;2022-08-25T13:18:28;29.60;99.90
19342;DHT22;9807;48.258;12.690;2022-08-25T13:23:54;29.80;99.90
19342;DHT22;9807;48.258;12.690;2022-08-25T13:26:35;29.70;99.90
19342;DHT22;9807;48.258;12.690;2022-08-25T13:29:13;29.70;99.90
19342;DHT22;9807;48.258;12.690;2022-08-25T13:32:12;29.80;99.90
19342;DHT22;9807;48.258;12.690;2022-08-25T13:34:45;29.60;99.90
19342;DHT22;9807;48.258;12.690;2022-08-25T13:37:22;29.60;99.90
19342;DHT22;9807;48.258;12.690;2022-08-25T13:42:48;29.50;99.90
19342;DHT22;9807;48.258;12.690;2022-08-25T13:45:20;29.30;99.90
19342;DHT22;9807;48.258;12.690;2022-08-25T13:47:48;29.20;99.90
19342;DHT22;9807;48.258;12.690;2022-08-25T13:50:31;29.20;99.90
19342;DHT22;9807;48.258;12.690;2022-08-25T13:55:32;29.20;99.90
19342;DHT22;9807;48.258;12.690;2022-08-25T13:57:59;29.20;99.90
19342;DHT22;9807;48.258;12.690;2022-08-25T14:00:44;29.20;99.90
19342;DHT22;9807;48.258;12.690;2022-08-25T14:03:33;29.20;99.90
19342;DHT22;9807;48.258;12.690;2022-08-25T14:08:44;29.10;99.90
19342;DHT22;9807;48.258;12.690;2022-08-25T14:11:26;29.10;99.90
19342;DHT22;9807;48.258;12.690;2022-08-25T14:14:05;29.10;99.90
19342;DHT22;9807;48.258;12.690;2022-08-25T14:16:50;29.00;99.90
19342;DHT22;9807;48.258;12.690;2022-08-25T14:19:19;28.90;99.90
19342;DHT22;9807;48.258;12.690;2022-08-25T14:21:45;28.90;99.90
19342;DHT22;9807;48.258;12.690;2022-08-25T14:24:16;28.90;99.90
19342;DHT22;9807;48.258;12.690;2022-08-25T14:26:47;28.90;99.90
19342;DHT22;9807;48.258;12.690;2022-08-25T14:29:15;28.80;99.90
19342;DHT22;9807;48.258;12.690;2022-08-25T14:31:44;28.80;99.90
19342;DHT22;9807;48.258;12.690;2022-08-25T14:34:23;28.90;99.90
19342;DHT22;9807;48.258;12.690;2022-08-25T14:36:50;29.00;99.90
19342;DHT22;9807;48.258;12.690;2022-08-25T14:39:17;29.10;99.90
19342;DHT22;9807;48.258;12.690;2022-08-25T14:41:43;29.10;99.90
19342;DHT22;9807;48.258;12.690;2022-08-25T14:44:13;29.10;99.90
19342;DHT22;9807;48.258;12.690;2022-08-25T14:46:50;29.10;99.90
19342;DHT22;9807;48.258;12.690;2022-08-25T14:49:20;29.10;99.90
19342;DHT22;9807;48.258;12.690;2022-08-25T14:51:47;29.10;99.90
19342;DHT22;9807;48.258;12.690;2022-08-25T14:54:14;29.00;99.90
19342;DHT22;9807;48.258;12.690;2022-08-25T14:56:45;28.90;99.90
19342;DHT22;9807;48.258;12.690;2022-08-25T14:59:13;28.90;99.90
19342;DHT22;9807;48.258;12.690;2022-08-25T15:01:39;28.90;99.90
19342;DHT22;9807;48.258;12.690;2022-08-25T15:04:22;28.80;99.90
19342;DHT22;9807;48.258;12.690;2022-08-25T15:06:57;28.90;99.90
19342;DHT22;9807;48.258;12.690;2022-08-25T15:09:24;28.80;99.90
19342;DHT22;9807;48.258;12.690;2022-08-25T15:11:55;28.80;99.90
19342;DHT22;9807;48.258;12.690;2022-08-25T15:14:23;28.80;99.90
19342;DHT22;9807;48.258;12.690;2022-08-25T15:16:53;28.90;99.90
19342;DHT22;9807;48.258;12.690;2022-08-25T15:19:22;28.90;99.90
19342;DHT22;9807;48.258;12.690;2022-08-25T15:21:49;28.90;99.90
19342;DHT22;9807;48.258;12.690;2022-08-25T15:24:16;28.80;99.90
19342;DHT22;9807;48.258;12.690;2022-08-25T15:26:56;28.80;99.90
19342;DHT22;9807;48.258;12.690;2022-08-25T15:29:22;28.70;99.90
19342;DHT22;9807;48.258;12.690;2022-08-25T15:31:49;28.70;99.90
19342;DHT22;9807;48.258;12.690;2022-08-25T15:34:15;28.80;99.90
19342;DHT22;9807;48.258;12.690;2022-08-25T15:36:41;28.80;99.90
19342;DHT22;9807;48.258;12.690;2022-08-25T15:39:08;28.90;99.90
19342;DHT22;9807;48.258;12.690;2022-08-25T15:41:34;28.90;99.90
19342;DHT22;9807;48.258;12.690;2022-08-25T15:44:03;28.90;99.90
19342;DHT22;9807;48.258;12.690;2022-08-25T15:46:31;28.90;99.90
19342;DHT22;9807;48.258;12.690;2022-08-25T15:48:57;28.90;99.90
19342;DHT22;9807;48.258;12.690;2022-08-25T15:51:24;29.00;99.90
19342;DHT22;9807;48.258;12.690;2022-08-25T15:53:50;29.00;99.90
19342;DHT22;9807;48.258;12.690;2022-08-25T15:56:16;28.90;99.90
19342;DHT22;9807;48.258;12.690;2022-08-25T15:58:45;29.00;99.90
19342;DHT22;9807;48.258;12.690;2022-08-25T16:01:13;28.80;99.90
19342;DHT22;9807;48.258;12.690;2022-08-25T16:03:39;28.80;99.90
19342;DHT22;9807;48.258;12.690;2022-08-25T16:06:09;28.70;99.90
19342;DHT22;9807;48.258;12.690;2022-08-25T16:08:35;28.60;99.90
19342;DHT22;9807;48.258;12.690;2022-08-25T16:11:15;28.50;99.90
19342;DHT22;9807;48.258;12.690;2022-08-25T16:13:41;28.50;99.90
19342;DHT22;9807;48.258;12.690;2022-08-25T16:16:07;28.40;99.90
19342;DHT22;9807;48.258;12.690;2022-08-25T16:18:33;28.30;99.90
19342;DHT22;9807;48.258;12.690;2022-08-25T16:20:59;28.30;99.90
19342;DHT22;9807;48.258;12.690;2022-08-25T16:23:24;28.20;99.90
19342;DHT22;9807;48.258;12.690;2022-08-25T16:25:51;28.20;99.90
19342;DHT22;9807;48.258;12.690;2022-08-25T16:28:17;28.20;99.90
19342;DHT22;9807;48.258;12.690;2022-08-25T16:30:47;28.20;99.90
